sensor_id;sensor_type;location;lat;lon;timestamp;P1;durP1;ratioP1;P2;durP2;ratioP2
82479;SDS011;72105;46.112;12.902;2024-02-14T00:01:55;2.88;;;1.25;;
82479;SDS011;72105;46.112;12.902;2024-02-14T00:04:21;3.00;;;1.20;;
82479;SDS011;72105;46.112;12.902;2024-02-14T00:06:47;3.03;;;1.33;;
82479;SDS011;72105;46.112;12.902;2024-02-14T00:09:13;2.70;;;1.67;;
82479;SDS011;72105;46.112;12.902;2024-02-14T00:11:40;3.10;;;1.58;;
82479;SDS011;72105;46.112;12.902;2024-02-14T00:14:06;2.95;;;2.13;;
82479;SDS011;72105;46.112;12.902;2024-02-14T00:16:32;2.90;;;2.17;;
82479;SDS011;72105;46.112;12.902;2024-02-14T00:18:58;2.47;;;1.80;;
82479;SDS011;72105;46.112;12.902;2024-02-14T00:21:24;3.03;;;1.73;;
82479;SDS011;72105;46.112;12.902;2024-02-14T00:23:50;2.75;;;1.73;;
82479;SDS011;72105;46.112;12.902;2024-02-14T00:26:16;2.22;;;1.80;;
82479;SDS011;72105;46.112;12.902;2024-02-14T00:28:43;2.67;;;1.92;;
82479;SDS011;72105;46.112;12.902;2024-02-14T00:31:09;3.65;;;1.67;;
82479;SDS011;72105;46.112;12.902;2024-02-14T00:33:35;2.38;;;1.90;;
82479;SDS011;72105;46.112;12.902;2024-02-14T00:36:01;1.40;;;1.30;;
82479;SDS011;72105;46.112;12.902;2024-02-14T00:38:27;2.75;;;1.70;;
82479;SDS011;72105;46.112;12.902;2024-02-14T00:40:53;2.80;;;1.95;;
82479;SDS011;72105;46.112;12.902;2024-02-14T00:43:19;1.85;;;1.60;;
82479;SDS011;72105;46.112;12.902;2024-02-14T00:45:45;2.53;;;1.70;;
82479;SDS011;72105;46.112;12.902;2024-02-14T00:48:12;1.40;;;1.30;;
82479;SDS011;72105;46.112;12.902;2024-02-14T00:50:38;1.80;;;1.70;;
82479;SDS011;72105;46.112;12.902;2024-02-14T00:53:04;1.98;;;1.38;;
82479;SDS011;72105;46.112;12.902;2024-02-14T00:55:31;3.33;;;1.45;;
82479;SDS011;72105;46.112;12.902;2024-02-14T00:57:57;1.15;;;1.05;;
82479;SDS011;72105;46.112;12.902;2024-02-14T01:00:23;2.35;;;1.25;;
82479;SDS011;72105;46.112;12.902;2024-02-14T01:02:49;2.47;;;1.20;;
82479;SDS011;72105;46.112;12.902;2024-02-14T01:05:16;1.58;;;1.40;;
82479;SDS011;72105;46.112;12.902;2024-02-14T01:07:42;1.27;;;1.08;;
82479;SDS011;72105;46.112;12.902;2024-02-14T01:10:09;1.75;;;1.45;;
82479;SDS011;72105;46.112;12.902;2024-02-14T01:12:35;1.38;;;1.05;;
82479;SDS011;72105;46.112;12.902;2024-02-14T01:15:01;2.78;;;1.50;;
82479;SDS011;72105;46.112;12.902;2024-02-14T01:17:27;2.47;;;1.25;;
82479;SDS011;72105;46.112;12.902;2024-02-14T01:19:53;1.52;;;0.90;;
82479;SDS011;72105;46.112;12.902;2024-02-14T01:22:20;2.22;;;1.38;;
82479;SDS011;72105;46.112;12.902;2024-02-14T01:24:46;1.15;;;1.00;;
82479;SDS011;72105;46.112;12.902;2024-02-14T01:27:12;1.85;;;1.25;;
82479;SDS011;72105;46.112;12.902;2024-02-14T01:29:38;2.03;;;1.55;;
82479;SDS011;72105;46.112;12.902;2024-02-14T01:32:05;1.88;;;1.40;;
82479;SDS011;72105;46.112;12.902;2024-02-14T01:34:32;1.27;;;1.02;;
82479;SDS011;72105;46.112;12.902;2024-02-14T01:36:58;4.03;;;2.30;;
82479;SDS011;72105;46.112;12.902;2024-02-14T01:39:24;1.88;;;1.10;;
82479;SDS011;72105;46.112;12.902;2024-02-14T01:41:50;1.10;;;0.93;;
82479;SDS011;72105;46.112;12.902;2024-02-14T01:44:16;1.83;;;1.08;;
82479;SDS011;72105;46.112;12.902;2024-02-14T01:46:43;3.30;;;1.20;;
82479;SDS011;72105;46.112;12.902;2024-02-14T01:49:10;2.25;;;1.42;;
82479;SDS011;72105;46.112;12.902;2024-02-14T01:51:40;2.10;;;1.48;;
82479;SDS011;72105;46.112;12.902;2024-02-14T01:54:10;2.35;;;1.17;;
82479;SDS011;72105;46.112;12.902;2024-02-14T01:56:36;1.83;;;1.10;;
82479;SDS011;72105;46.112;12.902;2024-02-14T01:59:03;1.65;;;1.10;;
82479;SDS011;72105;46.112;12.902;2024-02-14T02:01:31;1.73;;;1.20;;
82479;SDS011;72105;46.112;12.902;2024-02-14T02:03:57;1.27;;;0.70;;
82479;SDS011;72105;46.112;12.902;2024-02-14T02:06:23;2.47;;;1.10;;
82479;SDS011;72105;46.112;12.902;2024-02-14T02:08:51;0.90;;;0.90;;
82479;SDS011;72105;46.112;12.902;2024-02-14T02:11:18;1.48;;;0.90;;
82479;SDS011;72105;46.112;12.902;2024-02-14T02:13:44;0.90;;;0.80;;
82479;SDS011;72105;46.112;12.902;2024-02-14T02:16:10;1.60;;;0.82;;
82479;SDS011;72105;46.112;12.902;2024-02-14T02:18:37;1.52;;;1.00;;
82479;SDS011;72105;46.112;12.902;2024-02-14T02:21:03;1.02;;;0.95;;
82479;SDS011;72105;46.112;12.902;2024-02-14T02:23:33;1.65;;;0.68;;
82479;SDS011;72105;46.112;12.902;2024-02-14T02:25:59;1.88;;;1.25;;
82479;SDS011;72105;46.112;12.902;2024-02-14T02:28:25;0.80;;;0.80;;
82479;SDS011;72105;46.112;12.902;2024-02-14T02:30:51;2.05;;;1.00;;
82479;SDS011;72105;46.112;12.902;2024-02-14T02:33:20;1.00;;;0.68;;
82479;SDS011;72105;46.112;12.902;2024-02-14T02:35:47;0.98;;;0.60;;
82479;SDS011;72105;46.112;12.902;2024-02-14T02:38:15;1.33;;;0.50;;
82479;SDS011;72105;46.112;12.902;2024-02-14T02:40:42;0.90;;;0.73;;
82479;SDS011;72105;46.112;12.902;2024-02-14T02:43:08;1.65;;;0.90;;
82479;SDS011;72105;46.112;12.902;2024-02-14T02:45:35;1.05;;;0.60;;
82479;SDS011;72105;46.112;12.902;2024-02-14T02:48:01;1.02;;;0.70;;
82479;SDS011;72105;46.112;12.902;2024-02-14T02:50:28;0.98;;;0.88;;
82479;SDS011;72105;46.112;12.902;2024-02-14T02:52:55;1.48;;;1.15;;
82479;SDS011;72105;46.112;12.902;2024-02-14T02:55:22;0.60;;;0.50;;
82479;SDS011;72105;46.112;12.902;2024-02-14T02:57:48;0.88;;;0.80;;
82479;SDS011;72105;46.112;12.902;2024-02-14T03:00:15;1.75;;;0.85;;
82479;SDS011;72105;46.112;12.902;2024-02-14T03:02:42;1.50;;;0.70;;
82479;SDS011;72105;46.112;12.902;2024-02-14T03:05:11;0.70;;;0.70;;
82479;SDS011;72105;46.112;12.902;2024-02-14T03:07:43;0.90;;;0.70;;
82479;SDS011;72105;46.112;12.902;2024-02-14T03:10:10;1.00;;;0.93;;
82479;SDS011;72105;46.112;12.902;2024-02-14T03:12:42;1.40;;;1.10;;
82479;SDS011;72105;46.112;12.902;2024-02-14T03:15:10;1.20;;;0.63;;
82479;SDS011;72105;46.112;12.902;2024-02-14T03:17:36;1.05;;;0.50;;
82479;SDS011;72105;46.112;12.902;2024-02-14T03:20:02;1.25;;;0.80;;
82479;SDS011;72105;46.112;12.902;2024-02-14T03:22:35;1.27;;;0.70;;
82479;SDS011;72105;46.112;12.902;2024-02-14T03:25:01;0.82;;;0.82;;
82479;SDS011;72105;46.112;12.902;2024-02-14T03:27:28;0.98;;;0.63;;
82479;SDS011;72105;46.112;12.902;2024-02-14T03:29:56;2.00;;;0.98;;
82479;SDS011;72105;46.112;12.902;2024-02-14T03:32:25;1.52;;;0.80;;
82479;SDS011;72105;46.112;12.902;2024-02-14T03:34:52;0.90;;;0.68;;
82479;SDS011;72105;46.112;12.902;2024-02-14T03:37:18;0.80;;;0.80;;
82479;SDS011;72105;46.112;12.902;2024-02-14T03:39:44;1.15;;;0.80;;
82479;SDS011;72105;46.112;12.902;2024-02-14T03:42:10;1.20;;;0.90;;
82479;SDS011;72105;46.112;12.902;2024-02-14T03:44:37;1.38;;;0.82;;
82479;SDS011;72105;46.112;12.902;2024-02-14T03:47:03;1.98;;;0.80;;
82479;SDS011;72105;46.112;12.902;2024-02-14T03:49:29;0.63;;;0.63;;
82479;SDS011;72105;46.112;12.902;2024-02-14T03:51:56;0.88;;;0.77;;
82479;SDS011;72105;46.112;12.902;2024-02-14T03:54:22;0.60;;;0.60;;
82479;SDS011;72105;46.112;12.902;2024-02-14T03:56:48;0.90;;;0.60;;
82479;SDS011;72105;46.112;12.902;2024-02-14T04:01:49;1.10;;;0.82;;
82479;SDS011;72105;46.112;12.902;2024-02-14T04:04:18;1.10;;;0.70;;
82479;SDS011;72105;46.112;12.902;2024-02-14T04:06:44;0.47;;;0.47;;
82479;SDS011;72105;46.112;12.902;2024-02-14T04:09:11;1.13;;;0.80;;
82479;SDS011;72105;46.112;12.902;2024-02-14T04:11:37;0.95;;;0.70;;
82479;SDS011;72105;46.112;12.902;2024-02-14T04:14:06;2.00;;;1.02;;
82479;SDS011;72105;46.112;12.902;2024-02-14T04:16:32;4.53;;;1.85;;
82479;SDS011;72105;46.112;12.902;2024-02-14T04:18:58;2.22;;;1.20;;
82479;SDS011;72105;46.112;12.902;2024-02-14T04:21:24;0.82;;;0.80;;
82479;SDS011;72105;46.112;12.902;2024-02-14T04:23:50;1.92;;;1.30;;
82479;SDS011;72105;46.112;12.902;2024-02-14T04:26:20;2.55;;;1.40;;
82479;SDS011;72105;46.112;12.902;2024-02-14T04:28:46;3.40;;;2.30;;
82479;SDS011;72105;46.112;12.902;2024-02-14T04:31:12;9.40;;;3.78;;
82479;SDS011;72105;46.112;12.902;2024-02-14T04:33:38;5.90;;;2.38;;
82479;SDS011;72105;46.112;12.902;2024-02-14T04:36:05;3.80;;;1.92;;
82479;SDS011;72105;46.112;12.902;2024-02-14T04:38:31;2.08;;;1.42;;
82479;SDS011;72105;46.112;12.902;2024-02-14T04:40:57;3.63;;;1.83;;
82479;SDS011;72105;46.112;12.902;2024-02-14T04:43:25;1.30;;;1.10;;
82479;SDS011;72105;46.112;12.902;2024-02-14T04:45:52;1.67;;;1.00;;
82479;SDS011;72105;46.112;12.902;2024-02-14T04:48:18;1.48;;;1.20;;
82479;SDS011;72105;46.112;12.902;2024-02-14T04:50:44;1.10;;;1.05;;
82479;SDS011;72105;46.112;12.902;2024-02-14T04:53:10;1.17;;;0.90;;
82479;SDS011;72105;46.112;12.902;2024-02-14T04:55:36;0.93;;;0.60;;
82479;SDS011;72105;46.112;12.902;2024-02-14T04:58:02;0.80;;;0.70;;
82479;SDS011;72105;46.112;12.902;2024-02-14T05:00:30;4.65;;;2.20;;
82479;SDS011;72105;46.112;12.902;2024-02-14T05:02:56;1.00;;;1.00;;
82479;SDS011;72105;46.112;12.902;2024-02-14T05:05:22;0.60;;;0.60;;
82479;SDS011;72105;46.112;12.902;2024-02-14T05:07:48;1.05;;;0.63;;
82479;SDS011;72105;46.112;12.902;2024-02-14T05:10:15;1.40;;;1.00;;
82479;SDS011;72105;46.112;12.902;2024-02-14T05:12:41;0.77;;;0.73;;
82479;SDS011;72105;46.112;12.902;2024-02-14T05:15:08;1.20;;;0.73;;
82479;SDS011;72105;46.112;12.902;2024-02-14T05:17:34;0.80;;;0.80;;
82479;SDS011;72105;46.112;12.902;2024-02-14T05:20:00;1.00;;;0.90;;
82479;SDS011;72105;46.112;12.902;2024-02-14T05:22:26;0.93;;;0.70;;
82479;SDS011;72105;46.112;12.902;2024-02-14T05:24:52;1.00;;;0.50;;
82479;SDS011;72105;46.112;12.902;2024-02-14T05:27:19;0.73;;;0.73;;
82479;SDS011;72105;46.112;12.902;2024-02-14T05:29:45;0.82;;;0.75;;
82479;SDS011;72105;46.112;12.902;2024-02-14T05:32:11;1.15;;;0.57;;
82479;SDS011;72105;46.112;12.902;2024-02-14T05:34:37;1.20;;;0.70;;
82479;SDS011;72105;46.112;12.902;2024-02-14T05:37:03;0.65;;;0.55;;
82479;SDS011;72105;46.112;12.902;2024-02-14T05:39:30;1.52;;;0.73;;
82479;SDS011;72105;46.112;12.902;2024-02-14T05:41:56;2.92;;;0.60;;
82479;SDS011;72105;46.112;12.902;2024-02-14T05:44:22;0.95;;;0.90;;
82479;SDS011;72105;46.112;12.902;2024-02-14T05:46:49;0.75;;;0.60;;
82479;SDS011;72105;46.112;12.902;2024-02-14T05:49:15;2.47;;;1.00;;
82479;SDS011;72105;46.112;12.902;2024-02-14T05:51:41;2.30;;;0.75;;
82479;SDS011;72105;46.112;12.902;2024-02-14T05:54:07;1.02;;;0.88;;
82479;SDS011;72105;46.112;12.902;2024-02-14T05:56:33;2.03;;;0.88;;
82479;SDS011;72105;46.112;12.902;2024-02-14T05:58:59;1.15;;;0.90;;
82479;SDS011;72105;46.112;12.902;2024-02-14T06:01:25;0.98;;;0.77;;
82479;SDS011;72105;46.112;12.902;2024-02-14T06:03:52;1.42;;;1.33;;
82479;SDS011;72105;46.112;12.902;2024-02-14T06:06:18;0.60;;;0.60;;
82479;SDS011;72105;46.112;12.902;2024-02-14T06:08:44;2.75;;;1.58;;
82479;SDS011;72105;46.112;12.902;2024-02-14T06:11:10;1.30;;;0.95;;
82479;SDS011;72105;46.112;12.902;2024-02-14T06:13:39;1.33;;;0.75;;
82479;SDS011;72105;46.112;12.902;2024-02-14T06:16:05;0.90;;;0.90;;
82479;SDS011;72105;46.112;12.902;2024-02-14T06:18:31;1.55;;;1.02;;
82479;SDS011;72105;46.112;12.902;2024-02-14T06:20:57;1.52;;;1.27;;
82479;SDS011;72105;46.112;12.902;2024-02-14T06:23:24;2.70;;;2.08;;
82479;SDS011;72105;46.112;12.902;2024-02-14T06:25:50;1.27;;;1.00;;
82479;SDS011;72105;46.112;12.902;2024-02-14T06:28:16;0.98;;;0.80;;
82479;SDS011;72105;46.112;12.902;2024-02-14T06:30:42;1.50;;;1.20;;
82479;SDS011;72105;46.112;12.902;2024-02-14T06:33:08;2.70;;;1.20;;
82479;SDS011;72105;46.112;12.902;2024-02-14T06:35:34;1.98;;;1.30;;
82479;SDS011;72105;46.112;12.902;2024-02-14T06:38:01;2.08;;;1.58;;
82479;SDS011;72105;46.112;12.902;2024-02-14T06:40:27;1.65;;;1.00;;
82479;SDS011;72105;46.112;12.902;2024-02-14T06:42:54;1.80;;;1.60;;
82479;SDS011;72105;46.112;12.902;2024-02-14T06:45:20;3.03;;;1.25;;
82479;SDS011;72105;46.112;12.902;2024-02-14T06:47:46;3.25;;;1.67;;
82479;SDS011;72105;46.112;12.902;2024-02-14T06:50:12;1.83;;;0.90;;
82479;SDS011;72105;46.112;12.902;2024-02-14T06:52:39;1.98;;;1.00;;
82479;SDS011;72105;46.112;12.902;2024-02-14T06:55:05;1.33;;;0.90;;
82479;SDS011;72105;46.112;12.902;2024-02-14T06:57:31;2.83;;;1.00;;
82479;SDS011;72105;46.112;12.902;2024-02-14T06:59:57;1.10;;;0.70;;
82479;SDS011;72105;46.112;12.902;2024-02-14T07:02:23;0.90;;;0.80;;
82479;SDS011;72105;46.112;12.902;2024-02-14T07:04:53;2.35;;;1.10;;
82479;SDS011;72105;46.112;12.902;2024-02-14T07:07:19;2.78;;;1.55;;
82479;SDS011;72105;46.112;12.902;2024-02-14T07:09:45;1.45;;;1.20;;
82479;SDS011;72105;46.112;12.902;2024-02-14T07:12:12;1.35;;;1.00;;
82479;SDS011;72105;46.112;12.902;2024-02-14T07:14:38;4.93;;;1.52;;
82479;SDS011;72105;46.112;12.902;2024-02-14T07:17:04;3.25;;;1.92;;
82479;SDS011;72105;46.112;12.902;2024-02-14T07:19:30;1.52;;;1.35;;
82479;SDS011;72105;46.112;12.902;2024-02-14T07:21:57;1.75;;;1.30;;
82479;SDS011;72105;46.112;12.902;2024-02-14T07:24:23;1.98;;;1.60;;
82479;SDS011;72105;46.112;12.902;2024-02-14T07:26:49;1.48;;;1.20;;
82479;SDS011;72105;46.112;12.902;2024-02-14T07:29:15;2.72;;;1.75;;
82479;SDS011;72105;46.112;12.902;2024-02-14T07:31:41;2.40;;;1.35;;
82479;SDS011;72105;46.112;12.902;2024-02-14T07:34:07;1.92;;;1.33;;
82479;SDS011;72105;46.112;12.902;2024-02-14T07:36:34;3.17;;;1.20;;
82479;SDS011;72105;46.112;12.902;2024-02-14T07:39:00;2.47;;;1.10;;
82479;SDS011;72105;46.112;12.902;2024-02-14T07:41:26;3.00;;;1.15;;
82479;SDS011;72105;46.112;12.902;2024-02-14T07:43:52;2.63;;;1.20;;
82479;SDS011;72105;46.112;12.902;2024-02-14T07:46:18;0.73;;;0.63;;
82479;SDS011;72105;46.112;12.902;2024-02-14T07:48:45;1.65;;;1.08;;
82479;SDS011;72105;46.112;12.902;2024-02-14T07:51:11;2.10;;;1.13;;
82479;SDS011;72105;46.112;12.902;2024-02-14T07:53:38;1.83;;;1.50;;
82479;SDS011;72105;46.112;12.902;2024-02-14T07:56:04;2.95;;;1.23;;
82479;SDS011;72105;46.112;12.902;2024-02-14T07:58:30;3.03;;;1.42;;
82479;SDS011;72105;46.112;12.902;2024-02-14T08:00:56;1.30;;;1.10;;
82479;SDS011;72105;46.112;12.902;2024-02-14T08:03:22;2.85;;;1.50;;
82479;SDS011;72105;46.112;12.902;2024-02-14T08:05:49;3.30;;;1.30;;
82479;SDS011;72105;46.112;12.902;2024-02-14T08:08:16;6.80;;;2.13;;
82479;SDS011;72105;46.112;12.902;2024-02-14T08:10:42;6.13;;;2.75;;
82479;SDS011;72105;46.112;12.902;2024-02-14T08:13:08;1.38;;;1.27;;
82479;SDS011;72105;46.112;12.902;2024-02-14T08:15:36;3.28;;;1.30;;
82479;SDS011;72105;46.112;12.902;2024-02-14T08:18:02;3.13;;;1.38;;
82479;SDS011;72105;46.112;12.902;2024-02-14T08:20:28;4.65;;;2.28;;
82479;SDS011;72105;46.112;12.902;2024-02-14T08:22:55;2.10;;;1.30;;
82479;SDS011;72105;46.112;12.902;2024-02-14T08:25:21;1.05;;;0.90;;
82479;SDS011;72105;46.112;12.902;2024-02-14T08:27:47;1.67;;;1.30;;
82479;SDS011;72105;46.112;12.902;2024-02-14T08:30:13;1.05;;;0.73;;
82479;SDS011;72105;46.112;12.902;2024-02-14T08:32:40;3.03;;;1.08;;
82479;SDS011;72105;46.112;12.902;2024-02-14T08:35:06;2.13;;;1.13;;
82479;SDS011;72105;46.112;12.902;2024-02-14T08:37:32;1.30;;;0.90;;
82479;SDS011;72105;46.112;12.902;2024-02-14T08:40:01;1.08;;;0.90;;
82479;SDS011;72105;46.112;12.902;2024-02-14T08:42:30;2.17;;;1.35;;
82479;SDS011;72105;46.112;12.902;2024-02-14T08:44:57;1.25;;;0.93;;
82479;SDS011;72105;46.112;12.902;2024-02-14T08:47:23;2.13;;;1.33;;
82479;SDS011;72105;46.112;12.902;2024-02-14T08:49:49;1.83;;;1.40;;
82479;SDS011;72105;46.112;12.902;2024-02-14T08:52:15;1.92;;;1.13;;
82479;SDS011;72105;46.112;12.902;2024-02-14T08:54:42;1.50;;;0.98;;
82479;SDS011;72105;46.112;12.902;2024-02-14T08:57:08;0.80;;;0.80;;
82479;SDS011;72105;46.112;12.902;2024-02-14T08:59:34;1.42;;;1.10;;
82479;SDS011;72105;46.112;12.902;2024-02-14T09:02:00;2.50;;;0.93;;
82479;SDS011;72105;46.112;12.902;2024-02-14T09:04:27;1.90;;;0.80;;
82479;SDS011;72105;46.112;12.902;2024-02-14T09:06:53;2.00;;;1.48;;
82479;SDS011;72105;46.112;12.902;2024-02-14T09:09:20;1.25;;;1.15;;
82479;SDS011;72105;46.112;12.902;2024-02-14T09:11:46;1.08;;;1.08;;
82479;SDS011;72105;46.112;12.902;2024-02-14T09:14:12;1.95;;;1.50;;
82479;SDS011;72105;46.112;12.902;2024-02-14T09:16:38;2.25;;;1.80;;
82479;SDS011;72105;46.112;12.902;2024-02-14T09:19:04;1.60;;;1.30;;
82479;SDS011;72105;46.112;12.902;2024-02-14T09:21:33;1.05;;;0.88;;
82479;SDS011;72105;46.112;12.902;2024-02-14T09:24:02;1.67;;;1.30;;
82479;SDS011;72105;46.112;12.902;2024-02-14T09:26:28;1.80;;;1.20;;
82479;SDS011;72105;46.112;12.902;2024-02-14T09:28:55;2.35;;;1.38;;
82479;SDS011;72105;46.112;12.902;2024-02-14T09:31:21;2.28;;;1.52;;
82479;SDS011;72105;46.112;12.902;2024-02-14T09:33:47;1.33;;;0.90;;
82479;SDS011;72105;46.112;12.902;2024-02-14T09:36:14;1.00;;;0.90;;
82479;SDS011;72105;46.112;12.902;2024-02-14T09:38:40;1.83;;;0.90;;
82479;SDS011;72105;46.112;12.902;2024-02-14T09:43:36;0.98;;;0.90;;
82479;SDS011;72105;46.112;12.902;2024-02-14T09:46:06;1.00;;;0.80;;
82479;SDS011;72105;46.112;12.902;2024-02-14T09:50:59;2.40;;;1.45;;
82479;SDS011;72105;46.112;12.902;2024-02-14T09:53:26;1.95;;;1.08;;
82479;SDS011;72105;46.112;12.902;2024-02-14T09:55:52;1.88;;;1.23;;
82479;SDS011;72105;46.112;12.902;2024-02-14T09:58:18;2.45;;;1.40;;
82479;SDS011;72105;46.112;12.902;2024-02-14T10:00:45;1.85;;;1.30;;
82479;SDS011;72105;46.112;12.902;2024-02-14T10:03:11;2.78;;;1.60;;
82479;SDS011;72105;46.112;12.902;2024-02-14T10:05:37;2.58;;;1.30;;
82479;SDS011;72105;46.112;12.902;2024-02-14T10:08:04;1.50;;;1.30;;
82479;SDS011;72105;46.112;12.902;2024-02-14T10:10:33;3.40;;;1.73;;
82479;SDS011;72105;46.112;12.902;2024-02-14T10:13:05;3.03;;;1.58;;
82479;SDS011;72105;46.112;12.902;2024-02-14T10:15:31;4.28;;;1.48;;
82479;SDS011;72105;46.112;12.902;2024-02-14T10:17:58;4.43;;;1.60;;
82479;SDS011;72105;46.112;12.902;2024-02-14T10:20:25;2.70;;;2.10;;
82479;SDS011;72105;46.112;12.902;2024-02-14T10:22:51;2.92;;;1.98;;
82479;SDS011;72105;46.112;12.902;2024-02-14T10:25:18;2.63;;;1.33;;
82479;SDS011;72105;46.112;12.902;2024-02-14T10:27:44;2.88;;;1.55;;
82479;SDS011;72105;46.112;12.902;2024-02-14T10:30:12;3.38;;;1.90;;
82479;SDS011;72105;46.112;12.902;2024-02-14T10:32:39;2.50;;;1.48;;
82479;SDS011;72105;46.112;12.902;2024-02-14T10:35:06;2.38;;;1.60;;
82479;SDS011;72105;46.112;12.902;2024-02-14T10:37:37;1.73;;;1.35;;
82479;SDS011;72105;46.112;12.902;2024-02-14T10:40:03;2.30;;;1.45;;
82479;SDS011;72105;46.112;12.902;2024-02-14T10:42:33;1.45;;;1.35;;
82479;SDS011;72105;46.112;12.902;2024-02-14T10:45:02;1.70;;;1.10;;
82479;SDS011;72105;46.112;12.902;2024-02-14T10:47:33;1.20;;;0.98;;
82479;SDS011;72105;46.112;12.902;2024-02-14T10:50:04;1.13;;;1.00;;
82479;SDS011;72105;46.112;12.902;2024-02-14T10:52:32;2.25;;;1.20;;
82479;SDS011;72105;46.112;12.902;2024-02-14T10:54:58;0.75;;;0.75;;
82479;SDS011;72105;46.112;12.902;2024-02-14T10:57:25;1.35;;;0.82;;
82479;SDS011;72105;46.112;12.902;2024-02-14T10:59:52;1.55;;;1.10;;
82479;SDS011;72105;46.112;12.902;2024-02-14T11:02:19;1.25;;;1.00;;
82479;SDS011;72105;46.112;12.902;2024-02-14T11:04:45;1.08;;;0.80;;
82479;SDS011;72105;46.112;12.902;2024-02-14T11:07:12;1.33;;;0.80;;
82479;SDS011;72105;46.112;12.902;2024-02-14T11:09:40;1.63;;;0.85;;
82479;SDS011;72105;46.112;12.902;2024-02-14T11:12:07;0.98;;;0.85;;
82479;SDS011;72105;46.112;12.902;2024-02-14T11:14:36;3.55;;;0.70;;
82479;SDS011;72105;46.112;12.902;2024-02-14T11:17:04;1.05;;;0.90;;
82479;SDS011;72105;46.112;12.902;2024-02-14T11:19:34;2.17;;;1.00;;
82479;SDS011;72105;46.112;12.902;2024-02-14T11:22:09;1.77;;;1.13;;
82479;SDS011;72105;46.112;12.902;2024-02-14T11:24:37;2.28;;;1.40;;
82479;SDS011;72105;46.112;12.902;2024-02-14T11:27:03;2.03;;;1.20;;
82479;SDS011;72105;46.112;12.902;2024-02-14T11:29:29;1.05;;;0.70;;
82479;SDS011;72105;46.112;12.902;2024-02-14T11:31:58;1.13;;;0.90;;
82479;SDS011;72105;46.112;12.902;2024-02-14T11:34:25;1.67;;;1.13;;
82479;SDS011;72105;46.112;12.902;2024-02-14T11:36:51;1.23;;;1.08;;
82479;SDS011;72105;46.112;12.902;2024-02-14T11:39:17;2.15;;;1.20;;
82479;SDS011;72105;46.112;12.902;2024-02-14T11:41:44;2.67;;;1.55;;
82479;SDS011;72105;46.112;12.902;2024-02-14T11:44:10;2.03;;;1.33;;
82479;SDS011;72105;46.112;12.902;2024-02-14T11:46:39;2.00;;;1.50;;
82479;SDS011;72105;46.112;12.902;2024-02-14T11:49:06;2.90;;;1.80;;
82479;SDS011;72105;46.112;12.902;2024-02-14T11:51:34;1.65;;;1.40;;
82479;SDS011;72105;46.112;12.902;2024-02-14T11:54:04;1.55;;;1.30;;
82479;SDS011;72105;46.112;12.902;2024-02-14T11:56:31;2.65;;;1.60;;
82479;SDS011;72105;46.112;12.902;2024-02-14T11:59:01;1.75;;;1.45;;
82479;SDS011;72105;46.112;12.902;2024-02-14T12:01:30;2.17;;;1.88;;
82479;SDS011;72105;46.112;12.902;2024-02-14T12:03:58;2.08;;;1.70;;
82479;SDS011;72105;46.112;12.902;2024-02-14T12:06:25;2.17;;;1.80;;
82479;SDS011;72105;46.112;12.902;2024-02-14T12:08:52;2.58;;;1.83;;
82479;SDS011;72105;46.112;12.902;2024-02-14T12:11:19;3.97;;;2.20;;
82479;SDS011;72105;46.112;12.902;2024-02-14T12:13:49;3.83;;;2.22;;
82479;SDS011;72105;46.112;12.902;2024-02-14T12:16:15;1.92;;;1.52;;
82479;SDS011;72105;46.112;12.902;2024-02-14T12:18:41;1.90;;;1.42;;
82479;SDS011;72105;46.112;12.902;2024-02-14T12:21:07;2.72;;;1.30;;
82479;SDS011;72105;46.112;12.902;2024-02-14T12:23:33;6.80;;;2.40;;
82479;SDS011;72105;46.112;12.902;2024-02-14T12:26:01;3.90;;;2.40;;
82479;SDS011;72105;46.112;12.902;2024-02-14T12:28:28;2.55;;;1.77;;
82479;SDS011;72105;46.112;12.902;2024-02-14T12:30:57;3.40;;;2.15;;
82479;SDS011;72105;46.112;12.902;2024-02-14T12:33:24;2.60;;;1.77;;
82479;SDS011;72105;46.112;12.902;2024-02-14T12:35:51;4.32;;;2.20;;
82479;SDS011;72105;46.112;12.902;2024-02-14T12:38:19;2.88;;;1.92;;
82479;SDS011;72105;46.112;12.902;2024-02-14T12:40:45;3.20;;;1.90;;
82479;SDS011;72105;46.112;12.902;2024-02-14T12:43:11;2.40;;;1.83;;
82479;SDS011;72105;46.112;12.902;2024-02-14T12:45:38;2.83;;;1.92;;
82479;SDS011;72105;46.112;12.902;2024-02-14T12:48:05;2.22;;;2.03;;
82479;SDS011;72105;46.112;12.902;2024-02-14T12:50:31;2.97;;;2.05;;
82479;SDS011;72105;46.112;12.902;2024-02-14T12:52:57;2.80;;;1.85;;
82479;SDS011;72105;46.112;12.902;2024-02-14T12:55:24;2.25;;;1.75;;
82479;SDS011;72105;46.112;12.902;2024-02-14T12:57:51;2.78;;;2.22;;
82479;SDS011;72105;46.112;12.902;2024-02-14T13:00:17;4.05;;;1.90;;
82479;SDS011;72105;46.112;12.902;2024-02-14T13:02:43;5.55;;;2.85;;
82479;SDS011;72105;46.112;12.902;2024-02-14T13:05:09;4.10;;;2.58;;
82479;SDS011;72105;46.112;12.902;2024-02-14T13:07:36;4.13;;;2.55;;
82479;SDS011;72105;46.112;12.902;2024-02-14T13:10:02;3.60;;;2.58;;
82479;SDS011;72105;46.112;12.902;2024-02-14T13:12:39;4.13;;;2.35;;
82479;SDS011;72105;46.112;12.902;2024-02-14T13:15:06;2.97;;;2.50;;
82479;SDS011;72105;46.112;12.902;2024-02-14T13:17:32;3.25;;;2.50;;
82479;SDS011;72105;46.112;12.902;2024-02-14T13:19:58;4.35;;;2.88;;
82479;SDS011;72105;46.112;12.902;2024-02-14T13:22:25;7.00;;;3.35;;
82479;SDS011;72105;46.112;12.902;2024-02-14T13:24:51;3.97;;;3.10;;
82479;SDS011;72105;46.112;12.902;2024-02-14T13:27:17;3.85;;;2.97;;
82479;SDS011;72105;46.112;12.902;2024-02-14T13:29:46;5.53;;;3.20;;
82479;SDS011;72105;46.112;12.902;2024-02-14T13:32:12;4.90;;;3.03;;
82479;SDS011;72105;46.112;12.902;2024-02-14T13:34:38;8.75;;;4.22;;
82479;SDS011;72105;46.112;12.902;2024-02-14T13:37:04;6.15;;;4.05;;
82479;SDS011;72105;46.112;12.902;2024-02-14T13:39:31;6.25;;;4.40;;
82479;SDS011;72105;46.112;12.902;2024-02-14T13:41:57;6.00;;;3.72;;
82479;SDS011;72105;46.112;12.902;2024-02-14T13:44:25;6.38;;;3.80;;
82479;SDS011;72105;46.112;12.902;2024-02-14T13:46:51;5.00;;;3.72;;
82479;SDS011;72105;46.112;12.902;2024-02-14T13:49:18;7.55;;;4.13;;
82479;SDS011;72105;46.112;12.902;2024-02-14T13:51:50;7.20;;;4.35;;
82479;SDS011;72105;46.112;12.902;2024-02-14T13:54:17;8.23;;;4.90;;
82479;SDS011;72105;46.112;12.902;2024-02-14T13:56:43;8.07;;;5.32;;
82479;SDS011;72105;46.112;12.902;2024-02-14T13:59:10;7.00;;;5.10;;
82479;SDS011;72105;46.112;12.902;2024-02-14T14:01:36;6.72;;;5.07;;
82479;SDS011;72105;46.112;12.902;2024-02-14T14:04:03;8.07;;;5.43;;
82479;SDS011;72105;46.112;12.902;2024-02-14T14:06:29;12.00;;;7.00;;
82479;SDS011;72105;46.112;12.902;2024-02-14T14:08:55;8.60;;;6.20;;
82479;SDS011;72105;46.112;12.902;2024-02-14T14:11:21;9.82;;;7.13;;
82479;SDS011;72105;46.112;12.902;2024-02-14T14:13:48;10.55;;;6.75;;
82479;SDS011;72105;46.112;12.902;2024-02-14T14:16:14;11.13;;;6.53;;
82479;SDS011;72105;46.112;12.902;2024-02-14T14:18:40;11.98;;;6.38;;
82479;SDS011;72105;46.112;12.902;2024-02-14T14:21:07;10.80;;;6.45;;
82479;SDS011;72105;46.112;12.902;2024-02-14T14:23:33;9.27;;;6.03;;
82479;SDS011;72105;46.112;12.902;2024-02-14T14:25:59;10.15;;;6.88;;
82479;SDS011;72105;46.112;12.902;2024-02-14T14:28:25;11.32;;;6.70;;
82479;SDS011;72105;46.112;12.902;2024-02-14T14:30:52;9.98;;;6.72;;
82479;SDS011;72105;46.112;12.902;2024-02-14T14:33:19;11.38;;;6.97;;
82479;SDS011;72105;46.112;12.902;2024-02-14T14:35:45;10.98;;;6.50;;
82479;SDS011;72105;46.112;12.902;2024-02-14T14:38:14;11.40;;;7.20;;